sensor_id;sensor_type;location;lat;lon;timestamp;P1;durP1;ratioP1;P2;durP2;ratioP2
10910;SDS011;5508;49.150;11.030;2023-06-10T00:03:00;6.90;;;6.30;;
10910;SDS011;5508;49.150;11.030;2023-06-10T00:06:01;6.77;;;6.20;;
10910;SDS011;5508;49.150;11.030;2023-06-10T00:09:03;7.37;;;6.03;;
10910;SDS011;5508;49.150;11.030;2023-06-10T00:12:05;7.90;;;6.60;;
10910;SDS011;5508;49.150;11.030;2023-06-10T00:15:07;8.97;;;6.90;;
10910;SDS011;5508;49.150;11.030;2023-06-10T00:18:08;7.50;;;6.80;;
10910;SDS011;5508;49.150;11.030;2023-06-10T00:21:10;7.10;;;6.33;;
10910;SDS011;5508;49.150;11.030;2023-06-10T00:24:13;6.83;;;6.03;;
10910;SDS011;5508;49.150;11.030;2023-06-10T00:27:14;7.80;;;6.33;;
10910;SDS011;5508;49.150;11.030;2023-06-10T00:30:14;7.43;;;6.73;;
10910;SDS011;5508;49.150;11.030;2023-06-10T00:33:15;7.87;;;7.07;;
10910;SDS011;5508;49.150;11.030;2023-06-10T00:36:15;7.10;;;6.47;;
10910;SDS011;5508;49.150;11.030;2023-06-10T00:39:16;7.10;;;6.40;;
10910;SDS011;5508;49.150;11.030;2023-06-10T00:42:17;6.30;;;5.80;;
10910;SDS011;5508;49.150;11.030;2023-06-10T00:45:17;7.00;;;6.30;;
10910;SDS011;5508;49.150;11.030;2023-06-10T00:48:18;7.23;;;6.53;;
10910;SDS011;5508;49.150;11.030;2023-06-10T00:51:19;7.50;;;6.50;;
10910;SDS011;5508;49.150;11.030;2023-06-10T00:54:21;8.10;;;7.30;;
10910;SDS011;5508;49.150;11.030;2023-06-10T00:57:22;7.70;;;6.17;;
10910;SDS011;5508;49.150;11.030;2023-06-10T01:00:22;6.33;;;5.70;;
10910;SDS011;5508;49.150;11.030;2023-06-10T01:03:23;8.00;;;7.20;;
10910;SDS011;5508;49.150;11.030;2023-06-10T01:06:28;7.87;;;7.07;;
10910;SDS011;5508;49.150;11.030;2023-06-10T01:13:07;7.43;;;5.80;;
10910;SDS011;5508;49.150;11.030;2023-06-10T01:16:11;8.47;;;6.30;;
10910;SDS011;5508;49.150;11.030;2023-06-10T01:19:12;6.70;;;5.97;;
10910;SDS011;5508;49.150;11.030;2023-06-10T01:22:14;6.67;;;6.17;;
10910;SDS011;5508;49.150;11.030;2023-06-10T01:25:16;7.03;;;6.40;;
10910;SDS011;5508;49.150;11.030;2023-06-10T01:28:19;7.03;;;6.43;;
10910;SDS011;5508;49.150;11.030;2023-06-10T01:34:45;7.00;;;5.87;;
10910;SDS011;5508;49.150;11.030;2023-06-10T01:37:47;6.57;;;6.07;;
10910;SDS011;5508;49.150;11.030;2023-06-10T01:40:51;7.80;;;6.83;;
10910;SDS011;5508;49.150;11.030;2023-06-10T01:43:54;7.07;;;6.47;;
10910;SDS011;5508;49.150;11.030;2023-06-10T01:46:55;7.57;;;6.90;;
10910;SDS011;5508;49.150;11.030;2023-06-10T01:49:55;7.57;;;6.90;;
10910;SDS011;5508;49.150;11.030;2023-06-10T01:52:57;7.97;;;7.20;;
10910;SDS011;5508;49.150;11.030;2023-06-10T01:55:58;8.03;;;7.33;;
10910;SDS011;5508;49.150;11.030;2023-06-10T01:58:58;10.03;;;7.10;;
10910;SDS011;5508;49.150;11.030;2023-06-10T02:01:59;7.57;;;6.87;;
10910;SDS011;5508;49.150;11.030;2023-06-10T02:05:00;8.10;;;7.30;;
10910;SDS011;5508;49.150;11.030;2023-06-10T02:08:00;7.60;;;6.60;;
10910;SDS011;5508;49.150;11.030;2023-06-10T02:11:01;6.77;;;6.10;;
10910;SDS011;5508;49.150;11.030;2023-06-10T02:14:02;7.07;;;6.47;;
10910;SDS011;5508;49.150;11.030;2023-06-10T02:17:02;7.13;;;6.30;;
10910;SDS011;5508;49.150;11.030;2023-06-10T02:20:05;6.90;;;6.30;;
10910;SDS011;5508;49.150;11.030;2023-06-10T02:23:06;9.00;;;6.60;;
10910;SDS011;5508;49.150;11.030;2023-06-10T02:26:07;7.17;;;6.57;;
10910;SDS011;5508;49.150;11.030;2023-06-10T02:29:08;7.70;;;6.93;;
10910;SDS011;5508;49.150;11.030;2023-06-10T02:32:08;7.40;;;6.20;;
10910;SDS011;5508;49.150;11.030;2023-06-10T02:35:09;7.47;;;6.63;;
10910;SDS011;5508;49.150;11.030;2023-06-10T02:38:12;7.20;;;6.50;;
10910;SDS011;5508;49.150;11.030;2023-06-10T02:41:13;7.27;;;6.57;;
10910;SDS011;5508;49.150;11.030;2023-06-10T02:44:13;6.93;;;6.33;;
10910;SDS011;5508;49.150;11.030;2023-06-10T02:47:14;7.43;;;6.53;;
10910;SDS011;5508;49.150;11.030;2023-06-10T02:50:15;7.90;;;7.20;;
10910;SDS011;5508;49.150;11.030;2023-06-10T02:53:16;7.50;;;6.90;;
10910;SDS011;5508;49.150;11.030;2023-06-10T02:56:16;7.33;;;6.43;;
10910;SDS011;5508;49.150;11.030;2023-06-10T02:59:17;7.37;;;6.67;;
10910;SDS011;5508;49.150;11.030;2023-06-10T03:02:18;10.63;;;6.80;;
10910;SDS011;5508;49.150;11.030;2023-06-10T03:05:19;7.37;;;6.67;;
10910;SDS011;5508;49.150;11.030;2023-06-10T03:08:19;9.77;;;7.33;;
10910;SDS011;5508;49.150;11.030;2023-06-10T03:11:20;7.43;;;6.60;;
10910;SDS011;5508;49.150;11.030;2023-06-10T03:14:20;7.47;;;6.77;;
10910;SDS011;5508;49.150;11.030;2023-06-10T03:17:21;7.53;;;6.73;;
10910;SDS011;5508;49.150;11.030;2023-06-10T03:20:21;8.73;;;6.60;;
10910;SDS011;5508;49.150;11.030;2023-06-10T03:23:23;9.00;;;6.60;;
10910;SDS011;5508;49.150;11.030;2023-06-10T03:26:23;6.90;;;6.30;;
10910;SDS011;5508;49.150;11.030;2023-06-10T03:29:24;7.17;;;6.47;;
10910;SDS011;5508;49.150;11.030;2023-06-10T03:32:25;7.23;;;6.60;;
10910;SDS011;5508;49.150;11.030;2023-06-10T03:35:26;7.47;;;6.77;;
10910;SDS011;5508;49.150;11.030;2023-06-10T03:38:27;7.27;;;6.57;;
10910;SDS011;5508;49.150;11.030;2023-06-10T03:41:27;7.23;;;6.53;;
10910;SDS011;5508;49.150;11.030;2023-06-10T03:44:28;6.73;;;6.13;;
10910;SDS011;5508;49.150;11.030;2023-06-10T03:47:38;9.10;;;7.17;;
10910;SDS011;5508;49.150;11.030;2023-06-10T03:50:40;6.50;;;5.90;;
10910;SDS011;5508;49.150;11.030;2023-06-10T03:53:41;7.87;;;7.07;;
10910;SDS011;5508;49.150;11.030;2023-06-10T03:56:41;7.63;;;6.63;;
10910;SDS011;5508;49.150;11.030;2023-06-10T03:59:42;8.93;;;8.07;;
10910;SDS011;5508;49.150;11.030;2023-06-10T04:02:43;7.87;;;7.13;;
10910;SDS011;5508;49.150;11.030;2023-06-10T04:05:47;7.93;;;7.13;;
10910;SDS011;5508;49.150;11.030;2023-06-10T04:08:47;8.90;;;8.10;;
10910;SDS011;5508;49.150;11.030;2023-06-10T04:11:48;8.53;;;7.83;;
10910;SDS011;5508;49.150;11.030;2023-06-10T04:14:49;8.57;;;7.77;;
10910;SDS011;5508;49.150;11.030;2023-06-10T04:17:50;8.43;;;7.60;;
10910;SDS011;5508;49.150;11.030;2023-06-10T04:20:51;8.10;;;7.30;;
10910;SDS011;5508;49.150;11.030;2023-06-10T04:23:52;8.33;;;7.53;;
10910;SDS011;5508;49.150;11.030;2023-06-10T04:26:52;8.00;;;7.30;;
10910;SDS011;5508;49.150;11.030;2023-06-10T04:29:53;8.50;;;7.70;;
10910;SDS011;5508;49.150;11.030;2023-06-10T04:32:54;10.40;;;9.07;;
10910;SDS011;5508;49.150;11.030;2023-06-10T04:35:55;11.43;;;9.60;;
10910;SDS011;5508;49.150;11.030;2023-06-10T04:38:55;9.07;;;8.17;;
10910;SDS011;5508;49.150;11.030;2023-06-10T04:41:56;9.90;;;8.87;;
10910;SDS011;5508;49.150;11.030;2023-06-10T04:44:56;9.43;;;8.63;;
10910;SDS011;5508;49.150;11.030;2023-06-10T04:47:57;10.07;;;9.07;;
10910;SDS011;5508;49.150;11.030;2023-06-10T04:50:58;11.17;;;10.17;;
10910;SDS011;5508;49.150;11.030;2023-06-10T04:53:59;11.60;;;9.73;;
10910;SDS011;5508;49.150;11.030;2023-06-10T04:57:03;11.17;;;10.07;;
10910;SDS011;5508;49.150;11.030;2023-06-10T05:00:07;12.27;;;10.67;;
10910;SDS011;5508;49.150;11.030;2023-06-10T05:03:08;13.33;;;12.03;;
10910;SDS011;5508;49.150;11.030;2023-06-10T05:06:09;11.70;;;10.60;;
10910;SDS011;5508;49.150;11.030;2023-06-10T05:09:09;11.23;;;10.13;;
10910;SDS011;5508;49.150;11.030;2023-06-10T05:12:10;11.67;;;10.17;;
10910;SDS011;5508;49.150;11.030;2023-06-10T05:15:11;10.60;;;9.57;;
10910;SDS011;5508;49.150;11.030;2023-06-10T05:18:11;9.97;;;9.03;;
10910;SDS011;5508;49.150;11.030;2023-06-10T05:21:12;11.23;;;10.10;;
10910;SDS011;5508;49.150;11.030;2023-06-10T05:24:13;10.20;;;9.23;;
10910;SDS011;5508;49.150;11.030;2023-06-10T05:27:14;12.17;;;10.67;;
10910;SDS011;5508;49.150;11.030;2023-06-10T05:30:15;11.47;;;10.40;;
10910;SDS011;5508;49.150;11.030;2023-06-10T05:33:16;10.73;;;9.73;;
10910;SDS011;5508;49.150;11.030;2023-06-10T05:36:17;11.97;;;10.07;;
10910;SDS011;5508;49.150;11.030;2023-06-10T05:39:18;10.57;;;9.67;;
10910;SDS011;5508;49.150;11.030;2023-06-10T05:42:18;10.87;;;9.80;;
10910;SDS011;5508;49.150;11.030;2023-06-10T05:45:20;10.17;;;9.07;;
10910;SDS011;5508;49.150;11.030;2023-06-10T05:48:20;10.70;;;9.70;;
10910;SDS011;5508;49.150;11.030;2023-06-10T05:51:21;10.67;;;9.57;;
10910;SDS011;5508;49.150;11.030;2023-06-10T05:54:21;9.50;;;8.63;;
10910;SDS011;5508;49.150;11.030;2023-06-10T05:57:22;9.87;;;8.93;;
10910;SDS011;5508;49.150;11.030;2023-06-10T06:00:22;9.00;;;8.30;;
10910;SDS011;5508;49.150;11.030;2023-06-10T06:03:23;9.50;;;8.60;;
10910;SDS011;5508;49.150;11.030;2023-06-10T06:06:24;8.97;;;8.23;;
10910;SDS011;5508;49.150;11.030;2023-06-10T06:09:25;9.23;;;8.43;;
10910;SDS011;5508;49.150;11.030;2023-06-10T06:12:25;9.83;;;8.83;;
10910;SDS011;5508;49.150;11.030;2023-06-10T06:15:26;9.03;;;8.30;;
10910;SDS011;5508;49.150;11.030;2023-06-10T06:18:26;8.90;;;8.10;;
10910;SDS011;5508;49.150;11.030;2023-06-10T06:21:27;9.57;;;8.57;;
10910;SDS011;5508;49.150;11.030;2023-06-10T06:24:28;9.03;;;8.23;;
10910;SDS011;5508;49.150;11.030;2023-06-10T06:27:28;9.30;;;8.40;;
10910;SDS011;5508;49.150;11.030;2023-06-10T06:30:29;9.20;;;8.40;;
10910;SDS011;5508;49.150;11.030;2023-06-10T06:33:29;8.83;;;7.97;;
10910;SDS011;5508;49.150;11.030;2023-06-10T06:36:30;9.33;;;8.53;;
10910;SDS011;5508;49.150;11.030;2023-06-10T06:39:31;8.70;;;7.97;;
10910;SDS011;5508;49.150;11.030;2023-06-10T06:42:31;8.60;;;7.80;;
10910;SDS011;5508;49.150;11.030;2023-06-10T06:45:32;7.87;;;7.23;;
10910;SDS011;5508;49.150;11.030;2023-06-10T06:48:33;8.70;;;7.63;;
10910;SDS011;5508;49.150;11.030;2023-06-10T06:51:34;8.30;;;7.60;;
10910;SDS011;5508;49.150;11.030;2023-06-10T06:54:35;8.53;;;7.23;;
10910;SDS011;5508;49.150;11.030;2023-06-10T06:57:36;8.10;;;7.33;;
10910;SDS011;5508;49.150;11.030;2023-06-10T07:00:36;7.80;;;7.07;;
10910;SDS011;5508;49.150;11.030;2023-06-10T07:03:37;7.05;;;6.55;;
10910;SDS011;5508;49.150;11.030;2023-06-10T07:06:37;7.95;;;7.25;;
10910;SDS011;5508;49.150;11.030;2023-06-10T07:09:38;7.00;;;6.30;;
10910;SDS011;5508;49.150;11.030;2023-06-10T07:12:39;6.63;;;6.03;;
10910;SDS011;5508;49.150;11.030;2023-06-10T07:15:39;6.57;;;6.07;;
10910;SDS011;5508;49.150;11.030;2023-06-10T07:18:40;6.47;;;5.97;;
10910;SDS011;5508;49.150;11.030;2023-06-10T07:21:40;6.72;;;6.03;;
10910;SDS011;5508;49.150;11.030;2023-06-10T07:24:41;6.90;;;6.30;;
10910;SDS011;5508;49.150;11.030;2023-06-10T07:27:42;7.13;;;6.47;;
10910;SDS011;5508;49.150;11.030;2023-06-10T07:30:42;8.02;;;5.82;;
10910;SDS011;5508;49.150;11.030;2023-06-10T07:33:43;6.75;;;6.05;;
10910;SDS011;5508;49.150;11.030;2023-06-10T07:36:44;6.40;;;5.45;;
10910;SDS011;5508;49.150;11.030;2023-06-10T07:39:44;6.40;;;5.75;;
10910;SDS011;5508;49.150;11.030;2023-06-10T07:42:45;5.85;;;5.45;;
10910;SDS011;5508;49.150;11.030;2023-06-10T07:45:46;6.28;;;5.47;;
10910;SDS011;5508;49.150;11.030;2023-06-10T07:48:46;7.75;;;5.90;;
10910;SDS011;5508;49.150;11.030;2023-06-10T07:51:48;6.35;;;5.82;;
10910;SDS011;5508;49.150;11.030;2023-06-10T07:54:49;5.97;;;5.53;;
10910;SDS011;5508;49.150;11.030;2023-06-10T07:57:50;6.75;;;6.15;;
10910;SDS011;5508;49.150;11.030;2023-06-10T08:00:51;6.28;;;5.68;;
10910;SDS011;5508;49.150;11.030;2023-06-10T08:03:51;9.30;;;6.72;;
10910;SDS011;5508;49.150;11.030;2023-06-10T08:06:52;6.60;;;6.00;;
10910;SDS011;5508;49.150;11.030;2023-06-10T08:09:53;7.55;;;5.72;;
10910;SDS011;5508;49.150;11.030;2023-06-10T08:12:53;6.32;;;5.57;;
10910;SDS011;5508;49.150;11.030;2023-06-10T08:15:54;6.70;;;6.10;;
10910;SDS011;5508;49.150;11.030;2023-06-10T08:18:55;6.22;;;5.63;;
10910;SDS011;5508;49.150;11.030;2023-06-10T08:21:55;5.80;;;5.30;;
10910;SDS011;5508;49.150;11.030;2023-06-10T08:24:56;6.15;;;5.65;;
10910;SDS011;5508;49.150;11.030;2023-06-10T08:27:57;5.72;;;5.22;;
10910;SDS011;5508;49.150;11.030;2023-06-10T08:30:58;5.65;;;5.15;;
10910;SDS011;5508;49.150;11.030;2023-06-10T08:33:59;5.63;;;5.13;;
10910;SDS011;5508;49.150;11.030;2023-06-10T08:36:59;5.75;;;5.25;;
10910;SDS011;5508;49.150;11.030;2023-06-10T08:40:00;6.22;;;4.57;;
10910;SDS011;5508;49.150;11.030;2023-06-10T08:46:08;5.13;;;4.50;;
10910;SDS011;5508;49.150;11.030;2023-06-10T08:49:10;4.85;;;4.43;;
10910;SDS011;5508;49.150;11.030;2023-06-10T08:52:17;4.85;;;3.35;;
10910;SDS011;5508;49.150;11.030;2023-06-10T08:58:32;4.00;;;3.60;;
10910;SDS011;5508;49.150;11.030;2023-06-10T09:01:35;3.83;;;3.45;;
10910;SDS011;5508;49.150;11.030;2023-06-10T09:04:36;6.15;;;3.13;;
10910;SDS011;5508;49.150;11.030;2023-06-10T09:07:38;3.90;;;3.60;;
10910;SDS011;5508;49.150;11.030;2023-06-10T09:10:39;4.35;;;3.63;;
10910;SDS011;5508;49.150;11.030;2023-06-10T09:13:40;4.38;;;3.97;;
10910;SDS011;5508;49.150;11.030;2023-06-10T09:16:41;3.80;;;3.47;;
10910;SDS011;5508;49.150;11.030;2023-06-10T09:19:42;3.78;;;3.47;;
10910;SDS011;5508;49.150;11.030;2023-06-10T09:22:44;4.03;;;3.63;;
10910;SDS011;5508;49.150;11.030;2023-06-10T09:25:44;3.70;;;3.40;;
10910;SDS011;5508;49.150;11.030;2023-06-10T09:28:48;3.83;;;3.53;;
10910;SDS011;5508;49.150;11.030;2023-06-10T09:31:52;3.72;;;3.42;;
10910;SDS011;5508;49.150;11.030;2023-06-10T09:34:52;4.47;;;4.07;;
10910;SDS011;5508;49.150;11.030;2023-06-10T09:37:54;4.05;;;3.75;;
10910;SDS011;5508;49.150;11.030;2023-06-10T09:40:55;5.10;;;4.70;;
10910;SDS011;5508;49.150;11.030;2023-06-10T09:43:56;4.43;;;4.07;;
10910;SDS011;5508;49.150;11.030;2023-06-10T09:46:57;6.25;;;4.35;;
10910;SDS011;5508;49.150;11.030;2023-06-10T09:49:59;4.57;;;4.22;;
10910;SDS011;5508;49.150;11.030;2023-06-10T09:53:01;6.80;;;4.35;;
10910;SDS011;5508;49.150;11.030;2023-06-10T09:56:02;4.30;;;3.90;;
10910;SDS011;5508;49.150;11.030;2023-06-10T09:59:03;4.40;;;4.00;;
10910;SDS011;5508;49.150;11.030;2023-06-10T10:02:06;4.07;;;3.72;;
10910;SDS011;5508;49.150;11.030;2023-06-10T10:05:13;5.05;;;4.35;;
10910;SDS011;5508;49.150;11.030;2023-06-10T10:08:19;4.38;;;4.05;;
10910;SDS011;5508;49.150;11.030;2023-06-10T10:11:20;4.45;;;4.05;;
10910;SDS011;5508;49.150;11.030;2023-06-10T10:14:25;4.50;;;4.10;;
10910;SDS011;5508;49.150;11.030;2023-06-10T10:17:30;4.45;;;4.05;;
10910;SDS011;5508;49.150;11.030;2023-06-10T10:20:34;4.00;;;3.70;;
10910;SDS011;5508;49.150;11.030;2023-06-10T10:27:20;5.10;;;4.53;;
10910;SDS011;5508;49.150;11.030;2023-06-10T10:30:28;4.78;;;4.05;;
10910;SDS011;5508;49.150;11.030;2023-06-10T10:34:09;4.30;;;4.00;;
10910;SDS011;5508;49.150;11.030;2023-06-10T10:37:04;4.95;;;4.53;;
10910;SDS011;5508;49.150;11.030;2023-06-10T10:40:05;5.50;;;4.93;;
10910;SDS011;5508;49.150;11.030;2023-06-10T10:43:07;4.65;;;4.25;;
10910;SDS011;5508;49.150;11.030;2023-06-10T10:46:12;5.35;;;4.55;;
10910;SDS011;5508;49.150;11.030;2023-06-10T10:49:15;5.63;;;5.13;;
10910;SDS011;5508;49.150;11.030;2023-06-10T10:52:17;5.40;;;4.90;;
10910;SDS011;5508;49.150;11.030;2023-06-10T10:55:17;5.40;;;4.90;;
10910;SDS011;5508;49.150;11.030;2023-06-10T10:58:23;4.70;;;4.40;;
10910;SDS011;5508;49.150;11.030;2023-06-10T11:01:24;5.22;;;4.82;;
10910;SDS011;5508;49.150;11.030;2023-06-10T11:04:44;5.10;;;4.60;;
10910;SDS011;5508;49.150;11.030;2023-06-10T11:07:52;5.50;;;5.03;;
10910;SDS011;5508;49.150;11.030;2023-06-10T11:10:56;6.47;;;4.53;;
10910;SDS011;5508;49.150;11.030;2023-06-10T11:17:18;5.18;;;4.68;;
10910;SDS011;5508;49.150;11.030;2023-06-10T11:20:41;5.32;;;4.82;;
10910;SDS011;5508;49.150;11.030;2023-06-10T11:23:48;5.38;;;4.88;;
10910;SDS011;5508;49.150;11.030;2023-06-10T11:26:50;5.13;;;4.72;;
10910;SDS011;5508;49.150;11.030;2023-06-10T11:33:00;7.00;;;5.00;;
10910;SDS011;5508;49.150;11.030;2023-06-10T11:36:01;5.25;;;4.38;;
10910;SDS011;5508;49.150;11.030;2023-06-10T11:39:07;4.65;;;4.25;;
10910;SDS011;5508;49.150;11.030;2023-06-10T11:42:08;5.07;;;4.68;;
10910;SDS011;5508;49.150;11.030;2023-06-10T11:45:09;9.20;;;4.68;;
10910;SDS011;5508;49.150;11.030;2023-06-10T11:48:15;4.85;;;4.45;;
10910;SDS011;5508;49.150;11.030;2023-06-10T11:51:16;4.90;;;4.25;;
10910;SDS011;5508;49.150;11.030;2023-06-10T11:54:17;4.90;;;4.43;;
10910;SDS011;5508;49.150;11.030;2023-06-10T11:57:18;4.32;;;3.47;;
10910;SDS011;5508;49.150;11.030;2023-06-10T12:00:18;3.83;;;3.53;;
10910;SDS011;5508;49.150;11.030;2023-06-10T12:03:20;5.22;;;3.88;;
10910;SDS011;5508;49.150;11.030;2023-06-10T12:06:22;4.55;;;3.90;;
10910;SDS011;5508;49.150;11.030;2023-06-10T12:09:24;4.30;;;3.90;;
10910;SDS011;5508;49.150;11.030;2023-06-10T12:12:24;4.50;;;4.07;;
10910;SDS011;5508;49.150;11.030;2023-06-10T12:15:25;4.10;;;3.78;;
10910;SDS011;5508;49.150;11.030;2023-06-10T12:18:26;4.75;;;4.35;;
10910;SDS011;5508;49.150;11.030;2023-06-10T12:21:27;5.03;;;4.63;;
10910;SDS011;5508;49.150;11.030;2023-06-10T12:24:28;4.53;;;4.13;;
10910;SDS011;5508;49.150;11.030;2023-06-10T12:27:28;4.05;;;3.75;;
10910;SDS011;5508;49.150;11.030;2023-06-10T12:30:30;6.68;;;4.38;;
10910;SDS011;5508;49.150;11.030;2023-06-10T12:33:31;4.88;;;4.28;;
10910;SDS011;5508;49.150;11.030;2023-06-10T12:36:32;4.75;;;4.30;;
10910;SDS011;5508;49.150;11.030;2023-06-10T12:39:34;4.20;;;3.90;;
10910;SDS011;5508;49.150;11.030;2023-06-10T12:42:35;3.92;;;3.63;;
10910;SDS011;5508;49.150;11.030;2023-06-10T12:45:37;4.20;;;3.83;;
10910;SDS011;5508;49.150;11.030;2023-06-10T12:48:51;4.53;;;4.13;;
10910;SDS011;5508;49.150;11.030;2023-06-10T12:51:52;4.68;;;4.03;;
10910;SDS011;5508;49.150;11.030;2023-06-10T12:54:53;4.20;;;3.90;;
10910;SDS011;5508;49.150;11.030;2023-06-10T12:57:54;5.53;;;3.42;;
10910;SDS011;5508;49.150;11.030;2023-06-10T13:00:56;4.47;;;4.15;;
10910;SDS011;5508;49.150;11.030;2023-06-10T13:03:59;4.38;;;3.97;;
10910;SDS011;5508;49.150;11.030;2023-06-10T13:07:00;4.03;;;3.60;;
10910;SDS011;5508;49.150;11.030;2023-06-10T13:10:00;4.60;;;4.20;;
10910;SDS011;5508;49.150;11.030;2023-06-10T13:13:01;3.90;;;3.53;;
10910;SDS011;5508;49.150;11.030;2023-06-10T13:16:05;4.65;;;4.25;;
10910;SDS011;5508;49.150;11.030;2023-06-10T13:19:07;4.20;;;3.90;;
10910;SDS011;5508;49.150;11.030;2023-06-10T13:22:07;3.90;;;3.60;;
10910;SDS011;5508;49.150;11.030;2023-06-10T13:25:08;4.47;;;4.07;;
10910;SDS011;5508;49.150;11.030;2023-06-10T13:28:09;4.05;;;3.75;;
10910;SDS011;5508;49.150;11.030;2023-06-10T13:31:11;4.13;;;3.83;;
10910;SDS011;5508;49.150;11.030;2023-06-10T13:34:11;3.78;;;3.50;;
10910;SDS011;5508;49.150;11.030;2023-06-10T13:37:12;4.35;;;3.95;;
10910;SDS011;5508;49.150;11.030;2023-06-10T13:40:13;4.68;;;4.28;;
10910;SDS011;5508;49.150;11.030;2023-06-10T13:43:13;4.78;;;4.38;;
10910;SDS011;5508;49.150;11.030;2023-06-10T13:46:15;4.75;;;4.35;;
10910;SDS011;5508;49.150;11.030;2023-06-10T13:49:16;4.28;;;3.97;;
10910;SDS011;5508;49.150;11.030;2023-06-10T13:52:16;4.35;;;3.95;;
10910;SDS011;5508;49.150;11.030;2023-06-10T13:55:17;4.55;;;3.80;;
10910;SDS011;5508;49.150;11.030;2023-06-10T13:58:20;4.80;;;4.40;;
10910;SDS011;5508;49.150;11.030;2023-06-10T14:01:20;4.68;;;4.25;;
10910;SDS011;5508;49.150;11.030;2023-06-10T14:04:21;4.57;;;4.18;;
10910;SDS011;5508;49.150;11.030;2023-06-10T14:07:22;5.40;;;3.80;;
10910;SDS011;5508;49.150;11.030;2023-06-10T14:10:22;4.28;;;3.75;;
10910;SDS011;5508;49.150;11.030;2023-06-10T14:13:23;4.15;;;3.65;;
10910;SDS011;5508;49.150;11.030;2023-06-10T14:16:24;4.00;;;3.60;;
10910;SDS011;5508;49.150;11.030;2023-06-10T14:19:24;5.72;;;4.57;;
10910;SDS011;5508;49.150;11.030;2023-06-10T14:22:25;4.20;;;3.90;;
10910;SDS011;5508;49.150;11.030;2023-06-10T14:25:25;4.63;;;4.22;;
10910;SDS011;5508;49.150;11.030;2023-06-10T14:28:26;4.60;;;4.20;;
10910;SDS011;5508;49.150;11.030;2023-06-10T14:31:27;4.80;;;4.40;;
10910;SDS011;5508;49.150;11.030;2023-06-10T14:34:28;4.50;;;4.10;;
10910;SDS011;5508;49.150;11.030;2023-06-10T14:37:33;4.90;;;4.47;;
10910;SDS011;5508;49.150;11.030;2023-06-10T14:40:34;5.05;;;4.55;;
10910;SDS011;5508;49.150;11.030;2023-06-10T14:43:34;4.35;;;3.95;;
10910;SDS011;5508;49.150;11.030;2023-06-10T14:46:35;4.07;;;3.67;;
10910;SDS011;5508;49.150;11.030;2023-06-10T14:49:35;4.10;;;3.80;;
10910;SDS011;5508;49.150;11.030;2023-06-10T14:52:36;4.50;;;4.10;;
10910;SDS011;5508;49.150;11.030;2023-06-10T14:55:36;4.13;;;3.83;;
10910;SDS011;5508;49.150;11.030;2023-06-10T14:58:37;4.25;;;3.95;;
10910;SDS011;5508;49.150;11.030;2023-06-10T15:01:38;4.03;;;3.67;;
10910;SDS011;5508;49.150;11.030;2023-06-10T15:04:38;3.90;;;3.50;;
10910;SDS011;5508;49.150;11.030;2023-06-10T15:07:39;4.80;;;3.70;;
10910;SDS011;5508;49.150;11.030;2023-06-10T15:10:39;3.72;;;3.42;;
10910;SDS011;5508;49.150;11.030;2023-06-10T15:13:40;3.80;;;3.50;;
10910;SDS011;5508;49.150;11.030;2023-06-10T15:16:41;5.97;;;3.67;;
10910;SDS011;5508;49.150;11.030;2023-06-10T15:19:41;4.10;;;3.78;;
10910;SDS011;5508;49.150;11.030;2023-06-10T15:22:42;3.85;;;3.55;;
10910;SDS011;5508;49.150;11.030;2023-06-10T15:25:43;6.47;;;4.00;;
10910;SDS011;5508;49.150;11.030;2023-06-10T15:28:44;4.45;;;4.05;;
10910;SDS011;5508;49.150;11.030;2023-06-10T15:31:45;5.15;;;4.10;;
10910;SDS011;5508;49.150;11.030;2023-06-10T15:34:45;4.18;;;3.88;;
10910;SDS011;5508;49.150;11.030;2023-06-10T15:37:47;4.43;;;4.13;;
10910;SDS011;5508;49.150;11.030;2023-06-10T15:40:48;4.88;;;3.40;;
10910;SDS011;5508;49.150;11.030;2023-06-10T15:43:48;3.78;;;3.47;;
10910;SDS011;5508;49.150;11.030;2023-06-10T15:46:49;4.32;;;4.03;;
10910;SDS011;5508;49.150;11.030;2023-06-10T15:49:50;3.70;;;3.40;;
10910;SDS011;5508;49.150;11.030;2023-06-10T15:52:51;4.13;;;3.83;;
10910;SDS011;5508;49.150;11.030;2023-06-10T15:55:52;4.43;;;4.03;;
10910;SDS011;5508;49.150;11.030;2023-06-10T15:58:52;4.22;;;3.50;;
10910;SDS011;5508;49.150;11.030;2023-06-10T16:01:53;4.03;;;3.70;;
10910;SDS011;5508;49.150;11.030;2023-06-10T16:04:53;4.47;;;4.00;;
10910;SDS011;5508;49.150;11.030;2023-06-10T16:07:54;3.80;;;3.47;;
10910;SDS011;5508;49.150;11.030;2023-06-10T16:10:55;4.53;;;4.20;;
10910;SDS011;5508;49.150;11.030;2023-06-10T16:13:55;4.70;;;4.30;;
10910;SDS011;5508;49.150;11.030;2023-06-10T16:16:56;4.03;;;2.83;;
10910;SDS011;5508;49.150;11.030;2023-06-10T16:19:57;3.80;;;3.50;;
10910;SDS011;5508;49.150;11.030;2023-06-10T16:22:58;3.65;;;3.35;;
10910;SDS011;5508;49.150;11.030;2023-06-10T16:25:58;2.85;;;2.63;;
10910;SDS011;5508;49.150;11.030;2023-06-10T16:28:59;2.85;;;2.65;;
10910;SDS011;5508;49.150;11.030;2023-06-10T16:31:59;3.30;;;3.10;;
10910;SDS011;5508;49.150;11.030;2023-06-10T16:35:00;4.28;;;3.42;;
10910;SDS011;5508;49.150;11.030;2023-06-10T16:38:01;3.63;;;3.33;;
10910;SDS011;5508;49.150;11.030;2023-06-10T16:41:01;3.20;;;2.90;;
10910;SDS011;5508;49.150;11.030;2023-06-10T16:44:02;4.40;;;3.00;;
10910;SDS011;5508;49.150;11.030;2023-06-10T16:47:02;3.70;;;3.17;;
10910;SDS011;5508;49.150;11.030;2023-06-10T16:50:03;4.57;;;3.83;;
10910;SDS011;5508;49.150;11.030;2023-06-10T16:53:04;4.72;;;3.85;;
10910;SDS011;5508;49.150;11.030;2023-06-10T16:56:05;5.13;;;4.35;;
10910;SDS011;5508;49.150;11.030;2023-06-10T16:59:06;4.75;;;4.25;;
10910;SDS011;5508;49.150;11.030;2023-06-10T17:02:06;4.82;;;4.43;;
10910;SDS011;5508;49.150;11.030;2023-06-10T17:05:07;4.80;;;4.40;;
10910;SDS011;5508;49.150;11.030;2023-06-10T17:08:08;4.68;;;4.28;;
10910;SDS011;5508;49.150;11.030;2023-06-10T17:11:09;4.90;;;4.40;;
10910;SDS011;5508;49.150;11.030;2023-06-10T17:14:09;4.82;;;4.32;;
10910;SDS011;5508;49.150;11.030;2023-06-10T17:17:10;4.53;;;4.13;;
10910;SDS011;5508;49.150;11.030;2023-06-10T17:20:11;5.18;;;4.57;;
10910;SDS011;5508;49.150;11.030;2023-06-10T17:23:12;4.85;;;4.43;;
10910;SDS011;5508;49.150;11.030;2023-06-10T17:26:12;4.57;;;4.18;;
10910;SDS011;5508;49.150;11.030;2023-06-10T17:29:13;5.93;;;4.75;;
10910;SDS011;5508;49.150;11.030;2023-06-10T17:32:14;5.28;;;4.70;;
10910;SDS011;5508;49.150;11.030;2023-06-10T17:35:15;4.60;;;4.20;;
10910;SDS011;5508;49.150;11.030;2023-06-10T17:38:15;4.57;;;4.20;;
10910;SDS011;5508;49.150;11.030;2023-06-10T17:41:16;4.75;;;4.38;;
10910;SDS011;5508;49.150;11.030;2023-06-10T17:44:17;4.80;;;4.40;;
10910;SDS011;5508;49.150;11.030;2023-06-10T17:47:21;6.13;;;4.63;;
10910;SDS011;5508;49.150;11.030;2023-06-10T17:50:22;5.60;;;4.70;;
10910;SDS011;5508;49.150;11.030;2023-06-10T17:53:22;6.00;;;5.40;;
10910;SDS011;5508;49.150;11.030;2023-06-10T17:56:23;5.38;;;4.95;;
10910;SDS011;5508;49.150;11.030;2023-06-10T17:59:23;5.28;;;4.78;;
10910;SDS011;5508;49.150;11.030;2023-06-10T18:02:24;7.13;;;5.32;;
10910;SDS011;5508;49.150;11.030;2023-06-10T18:05:24;7.13;;;5.22;;
10910;SDS011;5508;49.150;11.030;2023-06-10T18:08:25;5.82;;;5.22;;
10910;SDS011;5508;49.150;11.030;2023-06-10T18:11:28;5.97;;;4.95;;
10910;SDS011;5508;49.150;11.030;2023-06-10T18:14:28;6.80;;;5.40;;
10910;SDS011;5508;49.150;11.030;2023-06-10T18:17:29;5.82;;;5.32;;
10910;SDS011;5508;49.150;11.030;2023-06-10T18:20:30;6.53;;;5.05;;
10910;SDS011;5508;49.150;11.030;2023-06-10T18:23:31;6.32;;;5.35;;
10910;SDS011;5508;49.150;11.030;2023-06-10T18:26:32;8.55;;;5.80;;
10910;SDS011;5508;49.150;11.030;2023-06-10T18:29:32;5.95;;;5.43;;
10910;SDS011;5508;49.150;11.030;2023-06-10T18:32:33;5.28;;;4.88;;
10910;SDS011;5508;49.150;11.030;2023-06-10T18:35:33;11.30;;;5.93;;